Nizhnevartovsk, Russia
Current Conditions -  °F | °C
As of 11:00 PM on Saturday 22 Nov 2014 (Local Time) from USNN Reporting Station
Clear Clear  
Wind Chill: -33°   Ceiling: Unl
Heat Index: -20°   Visibility: 6mi
Dew Point: -26°   Wind: 4mph
Humidity: 76%   Direction: 360°N
Pressure: 29.85"   Gusts: NA
Location:  60.93°N, 76.57°E
Report Text: USNN 221800Z 36002MPS CAVOK M29/M32 Q1011 NOSIG RMK QFE7540331//58
Loading
Personal Weather Stations






























Interactive Weather Map New forecast layout! Learn more

10-Day Weather Forecast

Advertisements
Track Severe Weather on mobile